Time;durP1;ratioP1;P1;durP2;ratioP2;P2;SDS_P1;SDS_P2;PMS_P1;PMS_P2;Temp;Humidity;BMP_temperature;BMP_pressure;BME280_temperature;BME280_humidity;BME280_pressure;Samples;Min_cycle;Max_cycle;Signal;HPM_P1;HPM_P2
2022/10/09 00:01:02;;;;;;;7.68;2.28;;;9.40;99.90;;;;;;6203214;28;20046;-80
2022/10/09 00:04:04;;;;;;;6.20;2.33;;;9.40;99.90;;;;;;6203991;28;20053;-81
2022/10/09 00:07:06;;;;;;;3.83;2.08;;;9.40;99.90;;;;;;6203071;28;20545;-82
2022/10/09 00:10:09;;;;;;;6.03;2.00;;;9.30;99.90;;;;;;6202829;28;20046;-81
2022/10/09 00:13:12;;;;;;;7.47;3.20;;;9.40;99.90;;;;;;6202248;28;20451;-81
2022/10/09 00:16:15;;;;;;;10.05;4.55;;;9.40;99.90;;;;;;6202926;28;20126;-81
2022/10/09 00:19:16;;;;;;;8.00;2.80;;;9.40;99.90;;;;;;6223534;28;20056;-81
2022/10/09 00:22:18;;;;;;;4.75;2.25;;;9.30;99.90;;;;;;6221936;28;20046;-83
2022/10/09 00:25:21;;;;;;;7.35;2.75;;;9.30;99.90;;;;;;6206353;28;20050;-81
2022/10/09 00:28:24;;;;;;;4.35;1.95;;;9.30;99.90;;;;;;6208669;28;20058;-82
2022/10/09 00:31:26;;;;;;;7.68;2.63;;;9.30;99.90;;;;;;6207582;28;20492;-81
2022/10/09 00:34:28;;;;;;;6.80;2.50;;;9.30;99.90;;;;;;6206447;28;20043;-83
2022/10/09 00:37:29;;;;;;;12.07;3.47;;;9.30;99.90;;;;;;6205274;28;20051;-81
2022/10/09 00:40:33;;;;;;;9.23;3.22;;;9.20;99.90;;;;;;6204970;28;20420;-83
2022/10/09 00:43:44;;;;;;;5.28;1.95;;;9.20;99.90;;;;;;6205532;28;20054;-83
2022/10/09 00:46:50;;;;;;;16.13;5.60;;;9.20;99.90;;;;;;6205574;28;20054;-83
2022/10/09 00:50:06;;;;;;;4.90;2.40;;;9.20;99.90;;;;;;6204719;28;20046;-83
2022/10/09 00:53:10;;;;;;;6.85;2.40;;;9.10;99.90;;;;;;6223705;22;20034;-81
2022/10/09 00:56:13;;;;;;;5.60;2.60;;;9.10;99.90;;;;;;6255631;28;20071;-81
2022/10/09 00:59:15;;;;;;;6.35;3.13;;;9.00;99.90;;;;;;6274233;28;20053;-82
2022/10/09 01:02:18;;;;;;;8.95;3.03;;;9.00;99.90;;;;;;6274556;28;20041;-81
2022/10/09 01:05:21;;;;;;;8.77;3.53;;;9.00;99.90;;;;;;6274295;28;20497;-80
2022/10/09 01:08:30;;;;;;;8.27;2.90;;;8.90;99.90;;;;;;6273804;28;20072;-82
2022/10/09 01:11:42;;;;;;;7.53;4.25;;;8.90;99.90;;;;;;6274673;28;20055;-80
2022/10/09 01:14:50;;;;;;;4.00;2.88;;;8.90;99.90;;;;;;6274745;28;20099;-81
2022/10/09 01:18:00;;;;;;;9.95;5.13;;;8.80;99.90;;;;;;6273829;28;20055;-81
2022/10/09 01:21:08;;;;;;;9.00;3.65;;;8.80;99.90;;;;;;6274012;28;20045;-81
2022/10/09 01:24:24;;;;;;;7.22;3.22;;;8.70;99.90;;;;;;6272863;28;20053;-81
2022/10/09 01:27:28;;;;;;;7.30;2.97;;;8.70;99.90;;;;;;6254461;28;20111;-81
2022/10/09 01:30:31;;;;;;;12.50;3.25;;;8.70;99.90;;;;;;6249408;28;20045;-81
2022/10/09 01:33:33;;;;;;;11.82;4.07;;;8.70;99.90;;;;;;6249416;28;20037;-81
2022/10/09 01:36:36;;;;;;;8.13;4.00;;;8.70;99.90;;;;;;6249870;28;20063;-80
2022/10/09 01:39:40;;;;;;;8.70;3.88;;;8.70;99.90;;;;;;6249893;28;20521;-82
2022/10/09 01:42:45;;;;;;;18.02;8.43;;;8.70;99.90;;;;;;6250739;28;20424;-82
2022/10/09 01:45:48;;;;;;;12.38;6.07;;;8.70;99.90;;;;;;6254516;28;20131;-82
2022/10/09 01:49:00;;;;;;;7.93;4.63;;;8.70;99.90;;;;;;6254250;28;20041;-81
2022/10/09 01:52:11;;;;;;;9.10;4.00;;;8.70;99.90;;;;;;6253961;28;20042;-81
2022/10/09 01:55:23;;;;;;;14.45;4.55;;;8.70;99.90;;;;;;6254496;28;20046;-82
2022/10/09 01:58:33;;;;;;;9.20;3.67;;;8.70;99.90;;;;;;6254716;28;20049;-81
2022/10/09 02:01:38;;;;;;;12.93;4.85;;;8.70;99.90;;;;;;6254141;28;20053;-81
2022/10/09 02:04:42;;;;;;;10.60;3.65;;;8.70;99.90;;;;;;6253461;28;20046;-81
2022/10/09 02:07:44;;;;;;;12.50;4.13;;;8.70;99.90;;;;;;6253921;28;20049;-81
2022/10/09 02:10:47;;;;;;;13.73;6.30;;;8.70;99.90;;;;;;6254474;28;20059;-82
2022/10/09 02:13:52;;;;;;;7.70;3.83;;;8.70;99.90;;;;;;6253664;28;20045;-81
2022/10/09 02:17:00;;;;;;;23.98;7.72;;;8.70;99.90;;;;;;6253541;28;20049;-81
2022/10/09 02:20:08;;;;;;;20.23;5.72;;;8.70;99.90;;;;;;6253216;28;20049;-81
2022/10/09 02:23:11;;;;;;;12.02;5.47;;;8.70;99.90;;;;;;6254426;28;20415;-81
2022/10/09 02:26:14;;;;;;;18.25;6.05;;;8.80;99.90;;;;;;6262430;28;20037;-81
2022/10/09 02:29:17;;;;;;;52.45;7.47;;;8.80;99.90;;;;;;6275668;28;20056;-81
2022/10/09 02:32:19;;;;;;;8.85;4.50;;;8.80;99.90;;;;;;6283061;28;20163;-82
2022/10/09 02:35:21;;;;;;;10.43;5.07;;;8.80;99.90;;;;;;6277297;28;20056;-81
2022/10/09 02:38:23;;;;;;;13.30;5.47;;;8.80;99.90;;;;;;6276459;28;20060;-81
2022/10/09 02:41:25;;;;;;;22.95;6.60;;;8.80;99.90;;;;;;6277114;28;20045;-82
2022/10/09 02:44:28;;;;;;;12.27;5.68;;;8.80;99.90;;;;;;6276807;28;20045;-81
2022/10/09 02:47:30;;;;;;;22.55;7.15;;;8.80;99.90;;;;;;6277155;28;20053;-81
2022/10/09 02:50:32;;;;;;;11.93;5.47;;;8.80;99.90;;;;;;6277484;28;20037;-82
2022/10/09 02:53:33;;;;;;;15.80;5.57;;;8.80;99.90;;;;;;6276784;28;20041;-82
2022/10/09 02:56:35;;;;;;;15.90;5.93;;;8.90;99.90;;;;;;6276567;28;20056;-81
2022/10/09 02:59:38;;;;;;;15.95;5.57;;;8.90;99.90;;;;;;6276688;28;20049;-81
2022/10/09 03:02:40;;;;;;;16.38;5.95;;;8.90;99.90;;;;;;6276685;28;20053;-81
2022/10/09 03:05:42;;;;;;;11.75;5.82;;;8.80;99.90;;;;;;6275748;28;20056;-81
2022/10/09 03:08:46;;;;;;;17.95;6.75;;;8.90;99.90;;;;;;6276491;28;20414;-81
2022/10/09 03:11:47;;;;;;;12.77;6.45;;;8.90;99.90;;;;;;6275678;28;20062;-81
2022/10/09 03:14:50;;;;;;;17.27;7.80;;;9.00;99.90;;;;;;6277221;28;20044;-81
2022/10/09 03:17:52;;;;;;;21.48;7.65;;;9.00;99.90;;;;;;6275302;28;20067;-81
2022/10/09 03:20:54;;;;;;;18.83;6.65;;;9.00;99.90;;;;;;6276030;28;20056;-81
2022/10/09 03:23:55;;;;;;;19.73;6.40;;;9.00;99.90;;;;;;6275968;28;20041;-81
2022/10/09 03:26:57;;;;;;;17.83;6.93;;;9.00;99.90;;;;;;6272594;28;20053;-82
2022/10/09 03:30:00;;;;;;;21.98;7.00;;;9.00;99.90;;;;;;6275393;28;20045;-81
2022/10/09 03:33:02;;;;;;;18.05;7.00;;;9.00;99.90;;;;;;6275557;28;20052;-81
2022/10/09 03:36:04;;;;;;;22.60;8.25;;;9.00;99.90;;;;;;6275578;28;20045;-81
2022/10/09 03:39:06;;;;;;;16.38;7.85;;;9.00;99.90;;;;;;6275030;28;20410;-81
2022/10/09 03:42:08;;;;;;;19.38;7.95;;;9.00;99.90;;;;;;6274371;28;20056;-81
2022/10/09 03:45:11;;;;;;;19.02;7.55;;;9.00;99.90;;;;;;6275205;28;20084;-81
2022/10/09 03:48:14;;;;;;;15.65;7.15;;;9.00;99.90;;;;;;6273836;28;20517;-80
2022/10/09 03:51:15;;;;;;;18.67;7.80;;;9.00;99.90;;;;;;6275353;28;20064;-81
2022/10/09 03:54:17;;;;;;;24.05;7.90;;;9.00;99.90;;;;;;6275517;28;20041;-80
2022/10/09 03:57:19;;;;;;;18.42;7.05;;;9.00;99.90;;;;;;6275321;28;20057;-80
2022/10/09 04:00:22;;;;;;;22.08;6.72;;;9.00;99.90;;;;;;6275349;28;20041;-81
2022/10/09 04:03:26;;;;;;;22.83;7.70;;;9.00;99.90;;;;;;6275374;28;20052;-81
2022/10/09 04:06:27;;;;;;;18.40;7.82;;;9.00;99.90;;;;;;6274731;28;20041;-81
2022/10/09 04:09:29;;;;;;;27.48;8.40;;;9.00;99.90;;;;;;6274826;28;20095;-81
2022/10/09 04:12:31;;;;;;;22.33;7.70;;;9.00;99.90;;;;;;6275509;28;20525;-81
2022/10/09 04:15:35;;;;;;;19.52;7.28;;;9.00;99.90;;;;;;6275594;28;20557;-81
2022/10/09 04:18:38;;;;;;;20.00;7.88;;;9.00;99.90;;;;;;6275359;28;20530;-81
2022/10/09 04:21:39;;;;;;;21.10;7.68;;;8.90;99.90;;;;;;6275677;28;20044;-81
2022/10/09 04:24:41;;;;;;;13.98;6.90;;;8.90;99.90;;;;;;6275199;28;20045;-81
2022/10/09 04:27:43;;;;;;;14.35;7.55;;;8.90;99.90;;;;;;6274898;28;20060;-81
2022/10/09 04:30:46;;;;;;;17.50;7.32;;;8.90;99.90;;;;;;6275538;28;20414;-80
2022/10/09 04:33:47;;;;;;;23.48;8.98;;;8.90;99.90;;;;;;6274687;28;20418;-82
2022/10/09 04:36:49;;;;;;;22.60;7.13;;;8.80;99.90;;;;;;6275187;28;20045;-80
2022/10/09 04:39:51;;;;;;;28.88;7.82;;;8.80;99.90;;;;;;6274890;28;20052;-82
2022/10/09 04:42:52;;;;;;;20.42;8.98;;;8.80;99.90;;;;;;6276368;28;20064;-82
2022/10/09 04:45:55;;;;;;;27.13;8.63;;;8.80;99.90;;;;;;6275790;28;20071;-82
2022/10/09 04:48:57;;;;;;;20.00;8.23;;;8.80;99.90;;;;;;6274957;28;20060;-82
2022/10/09 04:51:59;;;;;;;20.65;8.32;;;8.80;99.90;;;;;;6275123;28;20052;-82
2022/10/09 04:55:01;;;;;;;17.52;8.10;;;8.80;99.90;;;;;;6275601;28;20159;-82
2022/10/09 04:58:02;;;;;;;22.13;7.70;;;8.80;99.90;;;;;;6274992;28;20422;-82
2022/10/09 05:01:08;;;;;;;19.45;7.93;;;8.80;99.90;;;;;;6275290;28;20056;-82
2022/10/09 05:04:10;;;;;;;16.30;7.28;;;8.80;99.90;;;;;;6274741;28;20523;-82
2022/10/09 05:07:11;;;;;;;20.08;7.82;;;8.80;99.90;;;;;;6275195;28;20053;-82
2022/10/09 05:10:13;;;;;;;16.65;7.95;;;8.70;99.90;;;;;;6274809;28;20045;-81
2022/10/09 05:13:14;;;;;;;23.88;8.30;;;8.70;99.90;;;;;;6274436;28;20056;-82
2022/10/09 05:16:20;;;;;;;28.65;9.55;;;8.70;99.90;;;;;;6275826;28;20060;-82
2022/10/09 05:19:22;;;;;;;16.15;8.05;;;8.80;99.90;;;;;;6277994;28;20052;-82
2022/10/09 05:22:24;;;;;;;21.85;6.50;;;8.80;99.90;;;;;;6279735;28;20057;-82
2022/10/09 05:25:26;;;;;;;16.73;7.38;;;8.70;99.90;;;;;;6279450;28;20041;-82
2022/10/09 05:28:28;;;;;;;25.13;8.82;;;8.80;99.90;;;;;;6276015;28;20395;-81
2022/10/09 05:31:31;;;;;;;21.60;8.00;;;8.70;99.90;;;;;;6277214;28;20049;-81
2022/10/09 05:34:34;;;;;;;24.33;9.52;;;8.70;99.90;;;;;;6283269;28;20048;-82
2022/10/09 05:37:35;;;;;;;18.20;7.50;;;8.70;99.90;;;;;;6283155;28;20059;-82
2022/10/09 05:40:37;;;;;;;20.27;8.20;;;8.70;99.90;;;;;;6285139;28;20067;-81
2022/10/09 05:43:41;;;;;;;25.55;9.60;;;8.70;99.90;;;;;;6277520;28;20056;-82
2022/10/09 05:46:44;;;;;;;20.17;8.65;;;8.70;99.90;;;;;;6278438;28;20041;-82
2022/10/09 05:49:45;;;;;;;19.40;8.68;;;8.70;99.90;;;;;;6277883;28;20045;-82
2022/10/09 05:52:47;;;;;;;18.90;8.27;;;8.70;99.90;;;;;;6278507;28;20056;-82
2022/10/09 05:55:48;;;;;;;24.58;9.02;;;8.70;99.90;;;;;;6277408;28;20044;-82
2022/10/09 05:58:51;;;;;;;18.38;9.10;;;8.70;99.90;;;;;;6278266;28;20395;-82
2022/10/09 06:01:54;;;;;;;19.95;9.05;;;8.70;99.90;;;;;;6277522;28;20416;-82
2022/10/09 06:04:56;;;;;;;17.75;7.10;;;8.70;99.90;;;;;;6277599;28;20041;-82
2022/10/09 06:07:58;;;;;;;31.95;11.07;;;8.70;99.90;;;;;;6277681;28;20049;-82
2022/10/09 06:11:08;;;;;;;26.73;9.10;;;8.70;99.90;;;;;;6278129;28;20049;-82
2022/10/09 06:14:12;;;;;;;20.42;7.35;;;8.70;99.90;;;;;;6277473;28;20541;-82
2022/10/09 06:17:15;;;;;;;27.25;7.65;;;8.80;99.90;;;;;;6278563;28;20119;-82
2022/10/09 06:20:16;;;;;;;17.85;8.48;;;8.80;99.90;;;;;;6278070;28;20055;-82
2022/10/09 06:23:18;;;;;;;19.17;8.63;;;8.90;99.90;;;;;;6278338;28;20053;-82
2022/10/09 06:26:21;;;;;;;18.05;7.45;;;9.00;99.90;;;;;;6279208;28;20052;-82
2022/10/09 06:29:23;;;;;;;18.30;8.32;;;9.10;99.90;;;;;;6271827;28;20138;-82
2022/10/09 06:32:26;;;;;;;19.75;8.52;;;9.20;99.90;;;;;;6273150;28;20056;-82
2022/10/09 06:35:28;;;;;;;18.25;8.18;;;9.30;99.90;;;;;;6278233;28;20048;-82
2022/10/09 06:38:30;;;;;;;29.02;10.55;;;9.40;99.90;;;;;;6277970;28;20056;-82
2022/10/09 06:41:32;;;;;;;20.75;9.23;;;9.60;99.90;;;;;;6277244;28;20049;-83
2022/10/09 06:44:34;;;;;;;20.92;9.10;;;9.70;99.90;;;;;;6276819;28;20049;-83
2022/10/09 06:47:37;;;;;;;19.02;8.77;;;9.80;99.90;;;;;;6276644;28;20059;-82
2022/10/09 06:50:38;;;;;;;23.10;9.00;;;10.00;99.90;;;;;;6276925;28;20420;-82
2022/10/09 07:14:42;;;;;;;16.17;5.90;;;12.50;99.90;;;;;;6221318;28;20038;-82
2022/10/09 07:17:44;;;;;;;11.10;5.18;;;12.80;99.90;;;;;;6251748;28;20052;-81
2022/10/09 07:20:47;;;;;;;9.68;4.95;;;13.10;99.90;;;;;;6252696;28;20530;-80
2022/10/09 07:23:48;;;;;;;8.60;4.80;;;13.30;99.90;;;;;;6251713;28;20060;-79
2022/10/09 07:26:50;;;;;;;11.50;3.47;;;13.60;99.90;;;;;;6252841;28;20053;-80
2022/10/09 07:29:52;;;;;;;6.80;4.63;;;13.70;99.90;;;;;;6250650;28;20059;-80
2022/10/09 07:32:53;;;;;;;7.15;3.42;;;13.90;99.90;;;;;;6249897;28;20071;-81
2022/10/09 07:35:58;;;;;;;10.63;3.75;;;14.10;99.90;;;;;;6253272;28;20045;-80
2022/10/09 07:39:00;;;;;;;8.73;3.58;;;14.40;99.90;;;;;;6251158;28;20053;-80
2022/10/09 07:42:02;;;;;;;7.80;3.70;;;14.70;99.90;;;;;;6249864;28;20685;-80
2022/10/09 07:45:04;;;;;;;7.15;3.63;;;14.90;99.90;;;;;;6251345;28;20046;-80
2022/10/09 07:48:06;;;;;;;7.85;2.95;;;15.10;99.90;;;;;;6251198;28;20060;-81
2022/10/09 07:51:10;;;;;;;7.28;4.00;;;15.30;99.90;;;;;;6251516;28;20146;-81
2022/10/09 07:54:12;;;;;;;7.72;3.50;;;15.50;99.90;;;;;;6250382;28;20503;-80
2022/10/09 07:57:14;;;;;;;4.60;2.63;;;15.40;99.90;;;;;;6250214;28;20048;-80
2022/10/09 08:00:16;;;;;;;6.78;3.20;;;15.50;99.90;;;;;;6250347;28;20529;-81
2022/10/09 08:03:18;;;;;;;5.28;3.03;;;15.60;99.70;;;;;;6250987;28;20049;-81
2022/10/09 08:06:21;;;;;;;6.72;2.60;;;15.80;99.50;;;;;;6251192;28;20052;-80
2022/10/09 08:09:23;;;;;;;9.82;2.30;;;15.80;98.70;;;;;;6250113;28;20041;-80
2022/10/09 08:12:25;;;;;;;4.88;2.28;;;15.90;98.80;;;;;;6249787;28;20526;-80
2022/10/09 08:15:26;;;;;;;6.70;2.05;;;16.20;98.40;;;;;;6250483;28;20445;-80
2022/10/09 08:18:28;;;;;;;11.15;2.53;;;16.50;96.80;;;;;;6250738;28;20045;-80
2022/10/09 08:21:31;;;;;;;3.00;1.70;;;16.40;96.40;;;;;;6251301;28;20060;-79
2022/10/09 08:24:34;;;;;;;2.58;1.77;;;16.40;96.80;;;;;;6251296;28;20076;-81
2022/10/09 08:27:35;;;;;;;3.42;1.52;;;16.50;95.70;;;;;;6249912;28;20052;-81
2022/10/09 08:30:37;;;;;;;7.43;1.95;;;16.70;95.60;;;;;;6250657;28;20082;-81
2022/10/09 08:33:39;;;;;;;2.88;2.00;;;17.10;94.80;;;;;;6229710;28;20054;-81
2022/10/09 08:36:42;;;;;;;4.38;1.85;;;17.20;94.10;;;;;;6251542;28;20052;-80
2022/10/09 08:39:43;;;;;;;6.30;1.83;;;17.40;93.60;;;;;;6269517;28;20060;-80
2022/10/09 08:42:52;;;;;;;4.80;2.20;;;17.70;93.10;;;;;;6256469;28;20053;-80
2022/10/09 08:45:56;;;;;;;5.10;1.77;;;18.20;92.40;;;;;;6253382;28;20051;-81
2022/10/09 08:48:59;;;;;;;6.85;1.90;;;18.60;91.80;;;;;;6252874;28;20041;-81
2022/10/09 08:52:14;;;;;;;6.00;2.33;;;19.00;91.50;;;;;;6251954;28;20438;-81
2022/10/09 08:55:21;;;;;;;9.25;2.00;;;19.70;89.60;;;;;;6252393;28;20053;-81
2022/10/09 08:58:26;;;;;;;5.25;1.55;;;20.10;88.20;;;;;;6250537;28;20052;-80
2022/10/09 09:01:34;;;;;;;3.38;1.98;;;20.70;84.90;;;;;;6252718;28;20525;-82
2022/10/09 09:04:45;;;;;;;;;;;20.90;83.70;;;;;;6250788;28;20502;-80
2022/10/09 09:07:58;;;;;;;6.40;1.83;;;20.90;81.80;;;;;;6250687;28;19921;-80
2022/10/09 09:11:17;;;;;;;7.95;1.63;;;21.00;80.70;;;;;;6230243;28;20076;-81
2022/10/09 09:14:32;;;;;;;5.05;1.35;;;21.30;79.50;;;;;;6226470;28;20049;-80
2022/10/09 09:17:43;;;;;;;5.10;2.03;;;21.30;77.20;;;;;;6228324;28;20423;-81
2022/10/09 09:20:52;;;;;;;3.72;1.27;;;21.10;78.30;;;;;;6227960;28;20046;-81
2022/10/09 09:23:57;;;;;;;5.72;1.90;;;20.70;77.20;;;;;;6228395;28;20045;-81
2022/10/09 09:27:04;;;;;;;6.32;1.77;;;20.20;78.10;;;;;;6227882;28;20054;-80
2022/10/09 09:30:16;;;;;;;2.50;0.93;;;19.90;77.60;;;;;;6230143;28;20056;-81
2022/10/09 09:33:22;;;;;;;3.40;1.35;;;19.90;78.20;;;;;;6245822;28;20152;-79
2022/10/09 09:36:28;;;;;;;5.43;0.90;;;19.70;78.70;;;;;;6253619;28;20048;-80
2022/10/09 09:39:33;;;;;;;3.55;1.52;;;19.80;79.30;;;;;;6248933;28;20049;-80
2022/10/09 09:42:35;;;;;;;5.65;1.17;;;19.90;77.50;;;;;;6249391;28;20046;-82
2022/10/09 09:45:37;;;;;;;4.25;1.25;;;19.90;78.00;;;;;;6250842;28;20049;-81
2022/10/09 09:48:41;;;;;;;2.42;1.08;;;20.10;77.40;;;;;;6246311;28;20668;-81
2022/10/09 09:51:43;;;;;;;8.05;1.30;;;20.20;75.20;;;;;;6225203;28;20042;-81
2022/10/09 09:54:48;;;;;;;5.63;1.13;;;19.80;75.60;;;;;;6241345;28;20061;-82
2022/10/09 09:57:50;;;;;;;3.83;1.10;;;19.80;76.60;;;;;;6224051;28;20049;-79
2022/10/09 10:00:56;;;;;;;4.13;1.58;;;19.90;75.80;;;;;;6224717;28;20415;-80
2022/10/09 10:04:01;;;;;;;4.05;1.45;;;19.90;75.20;;;;;;6224932;28;20041;-80
2022/10/09 10:07:04;;;;;;;3.05;0.93;;;19.80;75.90;;;;;;6240619;28;20045;-79
2022/10/09 10:10:14;;;;;;;4.78;1.40;;;19.90;75.60;;;;;;6252750;28;20049;-81
2022/10/09 10:13:19;;;;;;;3.13;1.27;;;20.40;75.70;;;;;;6253423;28;20045;-80
2022/10/09 10:16:23;;;;;;;9.20;1.50;;;20.90;73.80;;;;;;6253569;28;20045;-79
2022/10/09 10:19:28;;;;;;;5.38;1.20;;;20.80;72.20;;;;;;6253732;28;20060;-79
2022/10/09 10:22:37;;;;;;;6.15;1.20;;;20.60;72.10;;;;;;6244345;28;20053;-80
2022/10/09 10:25:41;;;;;;;7.45;1.42;;;20.60;72.80;;;;;;6253076;28;20532;-80
2022/10/09 10:28:53;;;;;;;6.32;1.10;;;20.60;72.20;;;;;;6252966;28;20053;-81
2022/10/09 10:32:03;;;;;;;3.20;1.40;;;20.60;72.50;;;;;;6254287;28;20115;-79
2022/10/09 10:35:27;;;;;;;2.65;0.82;;;20.80;72.10;;;;;;6253633;28;20137;-80
2022/10/09 10:38:45;;;;;;;16.42;3.28;;;21.10;71.20;;;;;;6257064;28;20058;-80
2022/10/09 10:41:51;;;;;;;3.92;0.90;;;21.30;70.00;;;;;;6255185;28;20052;-81
2022/10/09 10:45:02;;;;;;;3.08;1.27;;;21.50;70.00;;;;;;6261498;28;20050;-80
2022/10/09 10:48:09;;;;;;;4.10;0.80;;;21.30;68.70;;;;;;6259759;28;20046;-81
2022/10/09 10:51:43;;;;;;;5.60;1.27;;;21.20;70.50;;;;;;6266244;28;20061;-81
2022/10/09 10:54:52;;;;;;;3.08;0.88;;;21.40;68.20;;;;;;6260158;28;20053;-81
2022/10/09 10:58:06;;;;;;;5.22;1.35;;;21.30;67.40;;;;;;6256707;28;20041;-82
2022/10/09 11:01:24;;;;;;;1.88;0.90;;;21.20;68.90;;;;;;6256058;28;20049;-80
2022/10/09 11:04:39;;;;;;;3.15;1.05;;;21.50;67.30;;;;;;6253963;28;20060;-82
2022/10/09 11:07:48;;;;;;;4.65;1.02;;;21.60;66.80;;;;;;6258149;28;20041;-81
2022/10/09 11:11:02;;;;;;;3.85;0.85;;;21.60;66.80;;;;;;6258500;28;20053;-82
2022/10/09 11:14:17;;;;;;;2.88;0.90;;;21.40;66.20;;;;;;6252097;28;20129;-81
2022/10/09 11:17:30;;;;;;;5.15;0.73;;;21.40;66.30;;;;;;6255752;28;20140;-80
2022/10/09 11:21:09;;;;;;;6.88;1.55;;;21.40;66.80;;;;;;6257380;28;20045;-82
2022/10/09 11:24:38;;;;;;;5.95;0.95;;;21.50;65.50;;;;;;6222039;28;20069;-81
2022/10/09 11:27:47;;;;;;;3.78;1.08;;;21.70;65.50;;;;;;6257658;28;20047;-80
2022/10/09 11:30:57;;;;;;;2.47;1.33;;;21.80;64.00;;;;;;6259838;28;20055;-80
2022/10/09 11:34:04;;;;;;;1.40;0.70;;;22.00;65.00;;;;;;6255989;28;20053;-83
2022/10/09 11:37:12;;;;;;;6.20;0.88;;;22.30;63.90;;;;;;6252698;28;20514;-81
2022/10/09 11:40:16;;;;;;;8.18;1.40;;;22.40;62.40;;;;;;6231540;28;20046;-81
2022/10/09 11:43:40;;;;;;;5.22;1.10;;;22.30;63.50;;;;;;6233865;28;20046;-82
2022/10/09 11:46:49;;;;;;;3.40;0.90;;;22.40;63.80;;;;;;6234251;28;20041;-80
2022/10/09 11:50:03;;;;;;;6.22;0.90;;;22.40;62.40;;;;;;6234989;28;20078;-79
2022/10/09 11:53:10;;;;;;;3.63;0.90;;;22.30;61.80;;;;;;6234314;28;20046;-80
2022/10/09 11:56:21;;;;;;;5.10;0.88;;;22.20;62.60;;;;;;6233805;28;20050;-81
2022/10/09 11:59:28;;;;;;;1.98;0.60;;;22.20;62.30;;;;;;6235010;28;20057;-79
2022/10/09 12:02:32;;;;;;;13.27;1.92;;;22.30;62.50;;;;;;6233468;28;20505;-82
2022/10/09 12:05:39;;;;;;;3.50;0.75;;;22.60;61.60;;;;;;6242405;28;20045;-80
2022/10/09 12:08:41;;;;;;;;;;;22.60;61.40;;;;;;6278597;28;20056;-79
2022/10/09 12:11:54;;;;;;;2.95;0.70;;;22.60;60.00;;;;;;6267400;28;19921;-80
2022/10/09 12:14:57;;;;;;;6.28;0.98;;;22.50;59.90;;;;;;6261844;28;20045;-81
2022/10/09 12:18:00;;;;;;;5.15;1.02;;;22.40;59.70;;;;;;6260017;28;20045;-80
2022/10/09 12:21:06;;;;;;;3.25;1.20;;;22.40;60.20;;;;;;6257193;28;20140;-80
2022/10/09 12:24:15;;;;;;;2.60;1.00;;;22.30;61.30;;;;;;6254526;28;20037;-81
2022/10/09 12:27:20;;;;;;;1.10;0.52;;;22.50;60.00;;;;;;6257216;28;20056;-80
2022/10/09 12:30:28;;;;;;;3.78;0.93;;;22.40;59.70;;;;;;6260038;28;20076;-80
2022/10/09 12:33:34;;;;;;;;;;;22.30;60.90;;;;;;6262055;28;20052;-81
2022/10/09 12:36:36;;;;;;;5.47;1.27;;;22.50;60.60;;;;;;6259026;28;20577;-81
2022/10/09 12:39:38;;;;;;;7.03;1.67;;;22.90;59.90;;;;;;6261215;28;20554;-79
2022/10/09 12:42:41;;;;;;;2.33;0.93;;;23.10;58.90;;;;;;6260236;28;20053;-79
2022/10/09 12:45:45;;;;;;;7.15;0.85;;;23.00;58.60;;;;;;6260537;28;20041;-81
2022/10/09 12:48:48;;;;;;;1.63;0.68;;;23.00;58.60;;;;;;6259444;28;20526;-80
2022/10/09 12:51:52;;;;;;;1.60;0.70;;;22.90;58.60;;;;;;6259913;28;20041;-81
2022/10/09 12:54:54;;;;;;;2.50;0.80;;;22.80;58.30;;;;;;6262010;28;20050;-79
2022/10/09 12:57:59;;;;;;;2.53;0.65;;;22.70;57.80;;;;;;6260319;28;20045;-79
2022/10/09 13:01:03;;;;;;;2.60;0.82;;;22.80;59.60;;;;;;6262527;28;20055;-79
2022/10/09 13:04:08;;;;;;;6.03;0.60;;;23.30;57.70;;;;;;6264126;28;20045;-78
2022/10/09 13:07:20;;;;;;;1.92;0.57;;;23.40;56.40;;;;;;6264921;28;20136;-79
2022/10/09 13:10:24;;;;;;;1.85;0.47;;;23.30;56.40;;;;;;6257851;28;20581;-79
2022/10/09 13:13:27;;;;;;;4.35;0.70;;;23.00;56.30;;;;;;6239569;28;20475;-79
2022/10/09 13:16:39;;;;;;;3.42;0.60;;;23.10;56.30;;;;;;6239966;28;20050;-79
2022/10/09 13:19:51;;;;;;;2.35;0.68;;;23.00;56.10;;;;;;6238311;28;20054;-79
2022/10/09 13:22:55;;;;;;;3.85;0.77;;;23.00;56.00;;;;;;6239280;28;20053;-79
2022/10/09 13:25:56;;;;;;;5.63;0.75;;;23.10;56.50;;;;;;6239667;28;20042;-80
2022/10/09 13:29:01;;;;;;;2.90;0.63;;;23.20;55.60;;;;;;6239241;28;20054;-80
2022/10/09 13:32:02;;;;;;;6.10;0.73;;;23.20;55.50;;;;;;6236867;28;20046;-79
2022/10/09 13:35:06;;;;;;;2.33;0.50;;;23.00;56.00;;;;;;6238514;28;20077;-80
2022/10/09 13:38:12;;;;;;;2.58;0.60;;;23.20;55.00;;;;;;6257979;28;20064;-80
2022/10/09 13:41:16;;;;;;;5.82;0.82;;;23.10;55.00;;;;;;6241214;28;20530;-80
2022/10/09 13:44:18;;;;;;;2.65;0.80;;;23.10;54.30;;;;;;6240917;28;20419;-80
2022/10/09 13:47:21;;;;;;;4.13;0.73;;;23.20;54.60;;;;;;6238909;28;20087;-81
2022/10/09 13:50:24;;;;;;;7.32;2.50;;;23.50;53.40;;;;;;6241145;28;20042;-79
2022/10/09 13:53:26;;;;;;;6.78;0.82;;;23.50;52.00;;;;;;6241304;28;20046;-79
2022/10/09 13:56:28;;;;;;;2.03;0.60;;;23.30;52.70;;;;;;6230220;28;20181;-78
2022/10/09 13:59:31;;;;;;;1.92;0.70;;;23.00;52.30;;;;;;6228829;28;20046;-77
2022/10/09 14:02:32;;;;;;;1.88;0.30;;;22.70;53.20;;;;;;6235169;28;20057;-77
2022/10/09 14:05:35;;;;;;;4.07;0.70;;;22.70;53.40;;;;;;6236674;28;20046;-78
2022/10/09 14:08:37;;;;;;;1.83;0.57;;;22.90;53.50;;;;;;6256582;28;20045;-78
2022/10/09 14:11:39;;;;;;;6.88;1.15;;;22.90;53.10;;;;;;6263279;28;20049;-78
2022/10/09 14:14:41;;;;;;;1.20;0.57;;;22.90;52.60;;;;;;6263344;28;20060;-77
2022/10/09 14:17:42;;;;;;;5.28;0.82;;;22.80;53.00;;;;;;6266486;28;20045;-78
2022/10/09 14:20:46;;;;;;;3.15;0.50;;;22.60;53.20;;;;;;6267353;28;20052;-78
2022/10/09 14:23:47;;;;;;;1.52;0.50;;;22.60;53.30;;;;;;6263447;28;20049;-78
2022/10/09 14:26:49;;;;;;;3.30;0.47;;;22.70;53.60;;;;;;6265216;28;20052;-78
2022/10/09 14:29:51;;;;;;;0.85;0.70;;;22.80;52.60;;;;;;6267988;28;20057;-78
2022/10/09 14:32:54;;;;;;;4.18;0.77;;;22.60;52.20;;;;;;6263374;28;20042;-79
2022/10/09 14:36:04;;;;;;;3.38;0.70;;;22.40;53.20;;;;;;6265390;28;20415;-80
2022/10/09 14:39:06;;;;;;;4.18;0.60;;;22.40;53.70;;;;;;6261491;28;20052;-78
2022/10/09 14:42:10;;;;;;;4.10;0.57;;;22.40;53.00;;;;;;6245563;28;20050;-79
2022/10/09 14:45:12;;;;;;;3.60;1.00;;;22.30;52.90;;;;;;6244981;28;20045;-78
2022/10/09 14:48:14;;;;;;;5.38;1.02;;;22.10;53.30;;;;;;6245013;28;20049;-78
2022/10/09 14:51:19;;;;;;;2.22;0.70;;;22.00;54.10;;;;;;6237654;28;20046;-78
2022/10/09 14:54:21;;;;;;;3.30;0.70;;;22.10;54.30;;;;;;6237439;28;20042;-78
2022/10/09 14:57:22;;;;;;;3.95;0.50;;;22.10;54.30;;;;;;6238737;28;20050;-79
2022/10/09 15:00:24;;;;;;;3.80;0.50;;;22.30;54.50;;;;;;6238072;28;20052;-78
2022/10/09 16:09:11;;;;;;;1.30;0.70;;;19.10;60.90;;;;;;6157953;28;20051;-79
2022/10/09 16:12:14;;;;;;;3.25;0.50;;;19.00;61.20;;;;;;6124068;29;20057;-79
2022/10/09 16:27:02;;;;;;;2.70;0.85;;;18.60;63.10;;;;;;6412727;22;20041;-79
2022/10/09 16:30:41;;;;;;;4.53;1.92;;;18.50;63.80;;;;;;6196976;28;20060;-78
2022/10/09 16:37:22;;;;;;;4.20;1.02;;;18.20;64.50;;;;;;6282846;28;20124;-79
2022/10/09 16:40:24;;;;;;;4.15;0.93;;;18.10;64.90;;;;;;6275842;28;20049;-78
2022/10/09 16:43:25;;;;;;;10.23;1.13;;;18.00;65.30;;;;;;6258314;28;20052;-79
2022/10/09 16:46:31;;;;;;;2.70;0.85;;;17.90;65.90;;;;;;6230053;28;20054;-79
2022/10/09 16:49:33;;;;;;;0.85;0.55;;;17.80;66.30;;;;;;6228633;28;20124;-79
2022/10/09 16:52:34;;;;;;;8.15;1.55;;;17.70;67.00;;;;;;6230062;28;20053;-79
2022/10/09 16:55:36;;;;;;;2.53;0.90;;;17.70;67.30;;;;;;6230432;28;20053;-79
2022/10/09 16:58:38;;;;;;;2.33;0.70;;;17.50;67.70;;;;;;6247240;28;20112;-79
2022/10/09 17:01:43;;;;;;;4.40;0.88;;;17.40;68.20;;;;;;6277209;28;20544;-79
2022/10/09 17:04:45;;;;;;;2.67;0.80;;;17.30;68.70;;;;;;6285317;28;20112;-79
2022/10/09 17:07:47;;;;;;;12.45;1.27;;;17.30;69.30;;;;;;6270121;28;20042;-79
2022/10/09 17:10:49;;;;;;;5.65;1.83;;;17.20;69.80;;;;;;6257549;28;20133;-79
2022/10/09 17:13:52;;;;;;;5.75;0.73;;;17.10;70.20;;;;;;6252389;28;20049;-79
2022/10/09 17:16:55;;;;;;;5.32;0.98;;;16.90;71.10;;;;;;6236271;28;20049;-79
2022/10/09 17:19:57;;;;;;;1.42;0.70;;;16.90;71.50;;;;;;6240616;28;20061;-79
2022/10/09 17:22:59;;;;;;;2.08;0.88;;;16.80;72.30;;;;;;6244778;28;20065;-80
2022/10/09 17:26:05;;;;;;;10.13;1.73;;;16.60;73.00;;;;;;6235101;28;20042;-78
2022/10/09 17:29:07;;;;;;;5.00;1.00;;;16.50;74.50;;;;;;6259510;28;20053;-79
2022/10/09 17:32:10;;;;;;;6.93;1.00;;;16.40;75.30;;;;;;6262605;28;20053;-79
2022/10/09 17:35:12;;;;;;;3.00;1.20;;;16.20;76.40;;;;;;6230085;28;20054;-80
2022/10/09 17:38:14;;;;;;;2.38;1.55;;;16.10;77.20;;;;;;6259476;28;20049;-79
2022/10/09 17:41:18;;;;;;;3.35;0.52;;;16.00;78.10;;;;;;6227549;28;20046;-78
2022/10/09 17:44:21;;;;;;;5.38;1.17;;;15.80;79.00;;;;;;6230843;28;20064;-78